Time;durP1;ratioP1;P1;durP2;ratioP2;P2;SDS_P1;SDS_P2;PMS_P1;PMS_P2;Temp;Humidity;BMP_temperature;BMP_pressure;BME280_temperature;BME280_humidity;BME280_pressure;Samples;Min_cycle;Max_cycle;Signal;HPM_P1;HPM_P2
2022/04/13 00:01:42;;;;;;;13.45;4.60;;;6.60;69.40;;;;;;4111467;28;20380;-83
2022/04/13 00:03:43;;;;;;;15.63;5.70;;;6.60;69.50;;;;;;4094087;29;20095;-82
2022/04/13 00:05:44;;;;;;;16.50;5.55;;;6.60;69.90;;;;;;4097136;29;20081;-83
2022/04/13 00:07:44;;;;;;;15.63;5.72;;;6.60;70.10;;;;;;4095825;29;20050;-82
2022/04/13 00:09:45;;;;;;;18.65;5.32;;;6.60;70.40;;;;;;4097905;29;20046;-82
2022/04/13 00:11:46;;;;;;;20.40;5.70;;;6.50;70.40;;;;;;4096493;28;20155;-83
2022/04/13 00:13:46;;;;;;;29.63;6.10;;;6.40;70.60;;;;;;4111879;28;20101;-82
2022/04/13 00:15:47;;;;;;;18.55;5.90;;;6.40;70.70;;;;;;4096336;28;20023;-82
2022/04/13 00:17:47;;;;;;;20.23;5.80;;;6.30;71.00;;;;;;4096242;29;20024;-84
2022/04/13 00:19:48;;;;;;;18.98;5.10;;;6.30;71.10;;;;;;4110078;28;20089;-82
2022/04/13 00:21:49;;;;;;;26.23;5.13;;;6.30;71.20;;;;;;4096434;28;20082;-83
2022/04/13 00:23:50;;;;;;;12.75;4.28;;;6.30;71.20;;;;;;4095775;29;20094;-82
2022/04/13 00:25:50;;;;;;;19.63;5.70;;;6.40;71.10;;;;;;4092836;29;20047;-83
2022/04/13 00:27:51;;;;;;;14.43;5.38;;;6.40;71.90;;;;;;4083102;29;20131;-82
2022/04/13 00:29:52;;;;;;;21.75;5.40;;;6.30;71.30;;;;;;4097160;29;20023;-81
2022/04/13 00:31:52;;;;;;;17.92;5.28;;;6.40;71.10;;;;;;4096727;28;20392;-82
2022/04/13 00:33:53;;;;;;;18.02;4.55;;;6.40;71.00;;;;;;4112004;28;20026;-82
2022/04/13 00:35:54;;;;;;;14.43;4.78;;;6.50;70.70;;;;;;4096459;28;20399;-82
2022/04/13 00:37:55;;;;;;;12.88;4.72;;;6.50;70.60;;;;;;4097256;29;20046;-82
2022/04/13 00:39:56;;;;;;;19.02;4.95;;;6.50;70.50;;;;;;4097858;29;20527;-83
2022/04/13 00:42:03;;;;;;;19.98;5.70;;;6.50;70.60;;;;;;4070912;29;20104;-82
2022/04/13 00:44:08;;;;;;;15.50;5.63;;;6.50;70.60;;;;;;4101347;28;20458;-81
2022/04/13 00:46:09;;;;;;;19.27;5.38;;;6.50;70.40;;;;;;4089019;28;20420;-82
2022/04/13 00:48:10;;;;;;;20.42;5.60;;;6.50;70.60;;;;;;4098491;28;20035;-82
2022/04/13 00:50:11;;;;;;;15.20;5.38;;;6.50;70.70;;;;;;4096232;28;20039;-81
2022/04/13 00:52:15;;;;;;;23.63;5.63;;;6.60;70.70;;;;;;4095352;28;20098;-83
2022/04/13 00:54:18;;;;;;;16.48;5.40;;;6.60;70.80;;;;;;4094450;29;20031;-82
2022/04/13 00:56:23;;;;;;;16.25;6.18;;;6.40;70.80;;;;;;4111586;28;20023;-83
2022/04/13 00:58:31;;;;;;;16.30;5.40;;;6.40;70.80;;;;;;4097619;28;20038;-82
2022/04/13 01:00:34;;;;;;;18.58;5.25;;;6.40;71.50;;;;;;4096501;28;20452;-82
2022/04/13 01:02:36;;;;;;;19.50;6.18;;;6.50;70.80;;;;;;4095035;29;20357;-83
2022/04/13 01:04:37;;;;;;;17.77;5.75;;;6.50;70.90;;;;;;4095017;28;20532;-82
2022/04/13 01:06:39;;;;;;;10.98;5.22;;;6.30;71.10;;;;;;4095903;29;20038;-82
2022/04/13 01:08:42;;;;;;;18.50;5.38;;;6.40;71.10;;;;;;4093024;29;20047;-83
2022/04/13 01:10:48;;;;;;;;;;;6.30;71.00;;;;;;4097259;28;20053;-83
2022/04/13 01:12:48;;;;;;;20.73;6.53;;;6.40;71.30;;;;;;4090822;29;19920;-81
2022/04/13 01:14:49;;;;;;;17.02;5.45;;;6.30;71.20;;;;;;4094296;29;20176;-82
2022/04/13 01:16:50;;;;;;;20.05;6.18;;;6.40;71.20;;;;;;4096402;29;20055;-83
2022/04/13 01:18:51;;;;;;;21.95;6.32;;;6.30;71.10;;;;;;4095257;29;20042;-82
2022/04/13 01:20:52;;;;;;;15.38;5.32;;;6.30;71.30;;;;;;4094200;28;20058;-82
2022/04/13 01:22:53;;;;;;;17.17;6.13;;;6.40;71.20;;;;;;4095720;28;20110;-82
2022/04/13 01:24:54;;;;;;;14.75;5.95;;;6.40;71.10;;;;;;4095913;29;20039;-82
2022/04/13 01:26:54;;;;;;;15.20;5.47;;;6.40;71.00;;;;;;4093953;29;20035;-82
2022/04/13 01:28:55;;;;;;;24.50;5.88;;;6.50;70.90;;;;;;4095666;29;20031;-82
2022/04/13 01:30:55;;;;;;;16.48;5.80;;;6.40;71.00;;;;;;4096121;28;20031;-82
2022/04/13 01:32:57;;;;;;;14.98;5.55;;;6.30;71.00;;;;;;4099071;28;20050;-82
2022/04/13 01:34:58;;;;;;;22.05;6.00;;;6.40;71.10;;;;;;4097743;28;20023;-82
2022/04/13 01:36:58;;;;;;;16.65;5.75;;;6.30;70.90;;;;;;4099865;28;20027;-83
2022/04/13 01:38:59;;;;;;;16.77;6.18;;;6.30;70.90;;;;;;4096966;28;20039;-83
2022/04/13 01:40:59;;;;;;;16.08;5.93;;;6.40;70.80;;;;;;4097387;28;20320;-83
2022/04/13 01:43:00;;;;;;;15.75;5.25;;;6.40;70.70;;;;;;4097494;28;20418;-82
2022/04/13 01:45:00;;;;;;;15.57;5.20;;;6.50;70.60;;;;;;4096590;29;20031;-83
2022/04/13 01:47:01;;;;;;;18.05;5.18;;;6.60;70.50;;;;;;4094307;29;20066;-82
2022/04/13 01:49:03;;;;;;;13.82;5.20;;;6.50;70.30;;;;;;4096086;28;20475;-82
2022/04/13 01:51:04;;;;;;;14.80;5.57;;;6.50;70.30;;;;;;4095311;28;20030;-82
2022/04/13 01:53:05;;;;;;;13.75;5.47;;;6.50;70.20;;;;;;4094739;29;20027;-82
2022/04/13 01:55:06;;;;;;;18.15;6.32;;;6.60;70.10;;;;;;4093068;29;20102;-82
2022/04/13 01:57:06;;;;;;;15.82;5.60;;;6.50;70.10;;;;;;4096751;28;20046;-82
2022/04/13 01:59:07;;;;;;;14.50;5.80;;;6.50;70.00;;;;;;4096511;28;20067;-81
2022/04/13 02:01:08;;;;;;;16.83;5.78;;;6.50;69.90;;;;;;4098042;28;20431;-82
2022/04/13 02:03:09;;;;;;;17.42;6.10;;;6.60;69.80;;;;;;4093312;28;20522;-83
2022/04/13 02:05:10;;;;;;;19.25;6.00;;;6.60;69.80;;;;;;4096322;29;20027;-83
2022/04/13 02:07:10;;;;;;;22.45;6.07;;;6.50;69.70;;;;;;4097460;28;20118;-83
2022/04/13 02:09:11;;;;;;;19.77;5.85;;;6.60;69.70;;;;;;4079983;29;20035;-82
2022/04/13 02:11:12;;;;;;;16.42;5.55;;;6.60;69.60;;;;;;4095123;28;20118;-81
2022/04/13 02:13:13;;;;;;;14.18;6.70;;;6.60;69.50;;;;;;4094107;29;20038;-82
2022/04/13 02:15:14;;;;;;;12.88;5.45;;;6.60;69.60;;;;;;4094929;29;20027;-83
2022/04/13 02:17:18;;;;;;;15.88;5.82;;;6.60;69.60;;;;;;4096492;29;20078;-82
2022/04/13 02:19:19;;;;;;;18.70;6.28;;;6.50;69.40;;;;;;4094618;28;20035;-83
2022/04/13 02:21:20;;;;;;;12.60;5.55;;;6.50;69.40;;;;;;4096871;29;20023;-82
2022/04/13 02:23:20;;;;;;;13.55;5.88;;;6.60;69.50;;;;;;4096677;28;20027;-81
2022/04/13 02:25:21;;;;;;;23.95;6.40;;;6.60;69.50;;;;;;4093838;29;20019;-82
2022/04/13 02:27:22;;;;;;;15.35;6.35;;;6.50;69.50;;;;;;4095867;29;20065;-82
2022/04/13 02:29:23;;;;;;;16.75;6.15;;;6.50;69.50;;;;;;4096356;29;20023;-81
2022/04/13 02:31:24;;;;;;;20.05;7.05;;;6.50;69.50;;;;;;4112295;28;20689;-83
2022/04/13 02:33:25;;;;;;;20.83;6.40;;;6.50;69.50;;;;;;4094800;28;20037;-82
2022/04/13 02:35:26;;;;;;;14.98;5.88;;;6.50;69.60;;;;;;4077805;29;20242;-82
2022/04/13 02:37:26;;;;;;;22.58;7.18;;;6.50;69.60;;;;;;4096793;29;20028;-82
2022/04/13 02:39:27;;;;;;;14.20;6.13;;;6.60;69.80;;;;;;4084089;28;21338;-82
2022/04/13 02:41:28;;;;;;;19.85;6.82;;;6.50;69.70;;;;;;4083632;28;20031;-82
2022/04/13 02:43:29;;;;;;;14.77;6.63;;;6.50;69.90;;;;;;4095943;28;20058;-83
2022/04/13 02:45:30;;;;;;;14.43;6.28;;;6.50;70.00;;;;;;4094224;28;20102;-82
2022/04/13 02:47:35;;;;;;;17.15;6.72;;;6.50;70.10;;;;;;4096457;28;20043;-83
2022/04/13 02:49:36;;;;;;;15.95;6.90;;;6.40;70.20;;;;;;4110369;28;20022;-82
2022/04/13 02:51:37;;;;;;;16.63;7.45;;;6.50;70.60;;;;;;4094622;28;20484;-82
2022/04/13 02:53:38;;;;;;;18.48;6.43;;;6.40;70.80;;;;;;4094039;28;20027;-83
2022/04/13 02:55:38;;;;;;;19.42;7.13;;;6.40;70.60;;;;;;4112828;28;20325;-80
2022/04/13 02:57:39;;;;;;;11.52;6.18;;;6.40;71.20;;;;;;4098641;28;20024;-81
2022/04/13 02:59:40;;;;;;;16.58;6.47;;;6.50;71.10;;;;;;4113044;28;20026;-83
2022/04/13 03:01:43;;;;;;;20.95;6.40;;;6.50;70.50;;;;;;4100228;28;20035;-81
2022/04/13 03:03:44;;;;;;;13.48;7.30;;;6.60;70.30;;;;;;4098712;29;20341;-82
2022/04/13 03:05:44;;;;;;;21.27;6.38;;;6.60;70.30;;;;;;4098384;29;20544;-83
2022/04/13 03:07:45;;;;;;;15.70;6.40;;;6.50;70.10;;;;;;4098618;29;20027;-83
2022/04/13 03:09:45;;;;;;;18.83;7.05;;;6.50;70.00;;;;;;4096530;28;20023;-82
2022/04/13 03:11:46;;;;;;;17.23;6.32;;;6.50;70.00;;;;;;4098628;28;20380;-81
2022/04/13 03:13:47;;;;;;;13.70;5.75;;;6.60;70.00;;;;;;4083254;29;20046;-82
2022/04/13 03:15:47;;;;;;;14.00;5.95;;;6.60;69.90;;;;;;4099252;29;20031;-81
2022/04/13 03:17:48;;;;;;;14.77;6.35;;;6.60;69.90;;;;;;4097512;29;20042;-81
2022/04/13 03:19:49;;;;;;;12.77;6.03;;;6.60;69.80;;;;;;4096783;29;20046;-80
2022/04/13 03:21:51;;;;;;;17.30;6.50;;;6.60;69.80;;;;;;4100405;28;20104;-81
2022/04/13 03:23:52;;;;;;;12.50;6.35;;;6.60;69.80;;;;;;4099085;29;20031;-80
2022/04/13 03:25:52;;;;;;;16.40;6.35;;;6.60;69.80;;;;;;4096558;29;20098;-81
2022/04/13 03:27:54;;;;;;;14.95;6.18;;;6.60;69.80;;;;;;4096922;29;20115;-81
2022/04/13 03:29:55;;;;;;;12.32;5.97;;;6.60;69.80;;;;;;4100819;29;20019;-81
2022/04/13 03:31:55;;;;;;;13.23;6.05;;;6.60;69.80;;;;;;4100237;28;20039;-82
2022/04/13 03:33:56;;;;;;;15.55;6.32;;;6.60;69.80;;;;;;4100094;29;20023;-82
2022/04/13 03:35:56;;;;;;;12.73;5.53;;;6.60;69.70;;;;;;4098688;29;20035;-80
2022/04/13 03:37:57;;;;;;;13.38;6.05;;;6.60;69.60;;;;;;4098402;29;20419;-80
2022/04/13 03:39:58;;;;;;;12.80;5.65;;;6.70;69.70;;;;;;4088037;28;20047;-81
2022/04/13 03:41:58;;;;;;;17.88;5.97;;;6.70;69.60;;;;;;4102606;28;20535;-81
2022/04/13 03:43:59;;;;;;;19.92;6.40;;;6.60;69.50;;;;;;4091738;28;20042;-81
2022/04/13 03:45:59;;;;;;;16.30;7.10;;;6.70;69.70;;;;;;4100065;28;20039;-81
2022/04/13 03:48:00;;;;;;;18.48;7.18;;;6.70;69.60;;;;;;4100205;29;20077;-82
2022/04/13 03:50:01;;;;;;;19.17;6.43;;;6.60;69.50;;;;;;4095930;28;20031;-81
2022/04/13 03:52:01;;;;;;;17.60;7.40;;;6.60;69.60;;;;;;4094825;29;20035;-81
2022/04/13 03:54:03;;;;;;;10.85;5.50;;;6.60;69.80;;;;;;4099144;28;20027;-81
2022/04/13 03:56:03;;;;;;;17.00;6.47;;;6.60;69.60;;;;;;4099123;28;20031;-80
2022/04/13 03:58:04;;;;;;;15.32;5.78;;;6.60;69.50;;;;;;4100277;28;20049;-81
2022/04/13 04:00:07;;;;;;;11.05;5.60;;;6.60;69.50;;;;;;4097777;28;20508;-82
2022/04/13 04:02:08;;;;;;;14.13;5.93;;;6.60;69.40;;;;;;4097000;29;20039;-82
2022/04/13 04:04:10;;;;;;;12.93;5.82;;;6.60;69.40;;;;;;4098312;29;20048;-81
2022/04/13 04:06:10;;;;;;;13.45;5.80;;;6.60;69.30;;;;;;4098035;28;20074;-82
2022/04/13 04:08:11;;;;;;;16.05;5.90;;;6.60;69.20;;;;;;4099743;29;20051;-81
2022/04/13 04:10:12;;;;;;;13.57;5.70;;;6.60;69.20;;;;;;4096349;28;20024;-80
2022/04/13 04:12:14;;;;;;;13.35;6.07;;;6.60;69.20;;;;;;4100652;29;20031;-81
2022/04/13 04:14:14;;;;;;;15.13;6.38;;;6.70;69.30;;;;;;4099230;28;20028;-81
2022/04/13 04:16:16;;;;;;;14.38;5.95;;;6.60;69.20;;;;;;4100368;29;20025;-82
2022/04/13 04:18:16;;;;;;;12.80;5.15;;;6.60;69.10;;;;;;4097577;29;20086;-81
2022/04/13 04:20:17;;;;;;;20.20;6.13;;;6.60;69.00;;;;;;4100051;28;20110;-81
2022/04/13 04:22:18;;;;;;;15.35;5.50;;;6.60;69.00;;;;;;4098051;29;20035;-80
2022/04/13 04:24:18;;;;;;;16.88;6.15;;;6.50;69.00;;;;;;4097724;28;20027;-82
2022/04/13 04:26:19;;;;;;;16.08;6.50;;;6.50;69.10;;;;;;4094864;29;20032;-82
2022/04/13 04:28:19;;;;;;;16.17;7.25;;;6.50;69.20;;;;;;4082617;29;20035;-81
2022/04/13 04:30:21;;;;;;;15.60;6.18;;;6.50;69.20;;;;;;4095579;29;20054;-81
2022/04/13 04:32:22;;;;;;;17.52;6.13;;;6.40;69.20;;;;;;4095352;29;20403;-81
2022/04/13 04:34:23;;;;;;;18.35;6.53;;;6.40;69.20;;;;;;4114715;28;20054;-81
2022/04/13 04:36:24;;;;;;;14.68;6.78;;;6.50;69.40;;;;;;4099370;28;20035;-81
2022/04/13 04:38:27;;;;;;;16.52;6.57;;;6.40;69.40;;;;;;4099136;28;20066;-81
2022/04/13 04:40:28;;;;;;;12.40;5.93;;;6.40;69.40;;;;;;4114525;28;20041;-83
2022/04/13 04:42:29;;;;;;;12.52;5.85;;;6.40;69.40;;;;;;4096445;29;20059;-81
2022/04/13 04:44:30;;;;;;;13.20;6.00;;;6.40;69.30;;;;;;4099408;29;20043;-81
2022/04/13 04:46:31;;;;;;;14.25;6.07;;;6.50;69.30;;;;;;4099560;29;20098;-82
2022/04/13 04:48:31;;;;;;;16.73;7.15;;;6.40;69.20;;;;;;4100273;28;20122;-81
2022/04/13 04:50:33;;;;;;;13.88;6.65;;;6.50;69.40;;;;;;4113189;28;20110;-81
2022/04/13 04:52:34;;;;;;;12.55;6.40;;;6.40;69.30;;;;;;4096509;28;20035;-82
2022/04/13 04:54:35;;;;;;;12.75;6.20;;;6.40;69.30;;;;;;4099898;28;20035;-82
2022/04/13 04:56:35;;;;;;;20.55;6.93;;;6.40;69.20;;;;;;4099135;29;20097;-82
2022/04/13 04:58:36;;;;;;;17.10;6.60;;;6.40;69.40;;;;;;4100192;29;20035;-81
2022/04/13 05:00:37;;;;;;;14.85;6.70;;;6.40;69.60;;;;;;4098692;28;20095;-82
2022/04/13 05:02:38;;;;;;;12.38;5.93;;;6.30;69.80;;;;;;4102466;29;20206;-82
2022/04/13 05:04:38;;;;;;;14.07;7.10;;;6.30;69.80;;;;;;4086553;29;20038;-81
2022/04/13 05:06:39;;;;;;;13.82;6.60;;;6.40;69.70;;;;;;4105841;29;20574;-81
2022/04/13 05:08:40;;;;;;;15.50;6.03;;;6.30;69.80;;;;;;4099404;29;20039;-82
2022/04/13 05:10:47;;;;;;;14.63;6.32;;;6.40;69.70;;;;;;4100072;28;20082;-80
2022/04/13 05:12:50;;;;;;;15.60;6.40;;;6.40;69.90;;;;;;4099019;29;20143;-82
2022/04/13 05:14:52;;;;;;;12.40;5.68;;;6.50;69.90;;;;;;4085780;29;20247;-81
2022/04/13 05:16:53;;;;;;;14.13;6.45;;;6.40;69.80;;;;;;4109645;28;20114;-81
2022/04/13 05:18:53;;;;;;;17.13;6.50;;;6.50;69.80;;;;;;4114579;28;20027;-81
2022/04/13 05:20:54;;;;;;;11.40;6.35;;;6.40;69.70;;;;;;4100082;28;20038;-82
2022/04/13 05:22:54;;;;;;;11.27;5.22;;;6.40;69.70;;;;;;4097623;29;20031;-81
2022/04/13 05:24:55;;;;;;;15.65;6.20;;;6.50;69.80;;;;;;4097686;29;20035;-80
2022/04/13 05:26:56;;;;;;;16.02;6.05;;;6.60;69.80;;;;;;4095779;29;20031;-83
2022/04/13 05:28:56;;;;;;;20.25;6.07;;;6.50;69.80;;;;;;4100125;29;20035;-81
2022/04/13 05:30:57;;;;;;;11.82;6.13;;;6.60;69.90;;;;;;4114223;28;20034;-82
2022/04/13 05:32:58;;;;;;;12.40;5.78;;;6.60;69.90;;;;;;4095377;28;20019;-81
2022/04/13 05:35:03;;;;;;;17.63;6.97;;;6.60;69.80;;;;;;4097179;29;20122;-81
2022/04/13 05:37:03;;;;;;;13.57;6.65;;;6.60;69.90;;;;;;4097690;29;20031;-83
2022/04/13 05:39:04;;;;;;;10.00;5.72;;;6.70;70.00;;;;;;4098210;29;20039;-80
2022/04/13 05:41:05;;;;;;;17.08;6.10;;;6.70;69.90;;;;;;4098457;28;20033;-81
2022/04/13 05:43:05;;;;;;;16.92;6.80;;;6.70;69.90;;;;;;4094024;28;20038;-80
2022/04/13 05:45:08;;;;;;;14.90;6.80;;;6.70;69.80;;;;;;4097518;28;20023;-80
2022/04/13 05:47:08;;;;;;;12.82;6.32;;;6.70;69.80;;;;;;4095746;29;20027;-80
2022/04/13 05:49:09;;;;;;;14.13;6.35;;;6.80;69.80;;;;;;4099833;29;20042;-80
2022/04/13 05:51:10;;;;;;;13.90;6.88;;;6.80;69.70;;;;;;4101718;28;20054;-82
2022/04/13 05:53:10;;;;;;;16.90;6.15;;;6.80;69.70;;;;;;4099935;28;20037;-80
2022/04/13 05:55:12;;;;;;;15.07;6.72;;;6.90;69.70;;;;;;4098038;29;20023;-80
2022/04/13 05:57:12;;;;;;;15.60;6.32;;;6.90;69.70;;;;;;4095136;28;20031;-81
2022/04/13 05:59:14;;;;;;;14.00;6.47;;;6.90;69.70;;;;;;4098205;29;20028;-81
2022/04/13 06:01:14;;;;;;;15.02;6.35;;;7.00;69.70;;;;;;4113032;28;20043;-82
2022/04/13 06:03:15;;;;;;;17.17;6.40;;;7.00;69.70;;;;;;4098909;28;20064;-81
2022/04/13 06:05:16;;;;;;;15.02;6.38;;;7.00;69.60;;;;;;4111314;28;20030;-81
2022/04/13 06:07:17;;;;;;;13.80;6.53;;;7.10;69.60;;;;;;4097831;28;20042;-82
2022/04/13 06:09:17;;;;;;;13.20;5.90;;;7.10;69.50;;;;;;4098174;28;20538;-82
2022/04/13 06:11:18;;;;;;;17.88;6.32;;;7.10;69.50;;;;;;4112447;28;20029;-80
2022/04/13 06:13:18;;;;;;;9.40;5.55;;;7.10;69.50;;;;;;4091085;29;20028;-82
2022/04/13 06:15:19;;;;;;;12.85;5.90;;;7.30;69.70;;;;;;4094359;28;20031;-81
2022/04/13 06:17:20;;;;;;;15.40;6.00;;;7.40;69.60;;;;;;4112083;28;20035;-81
2022/04/13 06:19:20;;;;;;;9.48;5.70;;;7.30;69.50;;;;;;4096269;28;20062;-81
2022/04/13 06:21:21;;;;;;;13.35;6.35;;;7.30;69.50;;;;;;4111817;28;20550;-82
2022/04/13 06:23:21;;;;;;;15.25;6.32;;;7.40;69.50;;;;;;4096868;28;20031;-80
2022/04/13 06:25:22;;;;;;;14.55;6.10;;;7.40;69.40;;;;;;4089851;29;20831;-80
2022/04/13 06:27:23;;;;;;;13.63;6.22;;;7.50;69.40;;;;;;4097583;29;20031;-81
2022/04/13 06:29:24;;;;;;;12.75;5.82;;;7.50;69.40;;;;;;4096882;28;20023;-83
2022/04/13 06:31:24;;;;;;;10.32;5.03;;;7.60;69.50;;;;;;4112253;28;20537;-83
2022/04/13 06:33:25;;;;;;;14.13;6.20;;;7.70;69.60;;;;;;4110673;28;20034;-84
2022/04/13 06:35:26;;;;;;;10.68;5.53;;;7.70;69.60;;;;;;4094299;29;20110;-80
2022/04/13 06:37:26;;;;;;;17.80;6.03;;;7.80;69.70;;;;;;4111457;28;20027;-80
2022/04/13 06:39:27;;;;;;;15.48;5.57;;;7.80;69.70;;;;;;4094735;28;20043;-82
2022/04/13 06:41:28;;;;;;;18.77;6.28;;;7.90;69.70;;;;;;4094818;28;20035;-80
2022/04/13 06:43:29;;;;;;;11.18;5.32;;;8.00;69.60;;;;;;4095211;28;20043;-81
2022/04/13 06:45:29;;;;;;;15.85;6.20;;;8.00;69.50;;;;;;4096863;29;20031;-81
2022/04/13 06:47:30;;;;;;;13.80;5.53;;;8.10;69.50;;;;;;4093146;29;20031;-81
2022/04/13 06:49:31;;;;;;;10.20;5.57;;;8.20;69.40;;;;;;4087211;29;20333;-81
2022/04/13 06:51:32;;;;;;;12.45;5.88;;;8.30;69.40;;;;;;4110432;28;20897;-82
2022/04/13 06:53:33;;;;;;;14.57;6.18;;;8.30;69.20;;;;;;4095664;28;20023;-81
2022/04/13 06:55:37;;;;;;;14.45;6.13;;;8.40;69.00;;;;;;4095947;29;20035;-82
2022/04/13 06:57:39;;;;;;;16.30;6.22;;;8.40;68.50;;;;;;4091052;29;20035;-82
2022/04/13 06:59:39;;;;;;;9.82;5.43;;;8.50;68.30;;;;;;4094629;28;20094;-82
2022/04/13 07:01:40;;;;;;;13.70;5.85;;;8.60;68.00;;;;;;4095508;29;20086;-81
2022/04/13 07:03:40;;;;;;;10.88;5.10;;;8.70;67.70;;;;;;4095236;29;20119;-81
2022/04/13 07:05:41;;;;;;;10.52;5.72;;;8.70;67.40;;;;;;4094433;28;20336;-80
2022/04/13 07:07:42;;;;;;;15.23;5.25;;;8.80;67.10;;;;;;4096097;29;20348;-81
2022/04/13 07:09:43;;;;;;;12.85;5.72;;;8.80;66.80;;;;;;4093638;29;20028;-81
2022/04/13 07:11:43;;;;;;;11.98;5.78;;;8.90;67.20;;;;;;4094137;29;20030;-80
2022/04/13 07:13:44;;;;;;;13.40;6.13;;;9.00;66.00;;;;;;4096086;28;20388;-81
2022/04/13 07:15:45;;;;;;;15.93;5.40;;;9.00;65.50;;;;;;4096365;29;20094;-81
2022/04/13 07:17:46;;;;;;;9.50;5.03;;;9.10;65.40;;;;;;4094392;29;20031;-82
2022/04/13 07:19:47;;;;;;;12.07;5.53;;;9.10;65.10;;;;;;4091808;29;20106;-81
2022/04/13 07:21:47;;;;;;;13.75;5.13;;;9.20;64.50;;;;;;4083015;29;20032;-82
2022/04/13 07:23:48;;;;;;;11.55;5.15;;;9.30;64.40;;;;;;4109212;28;20549;-81
2022/04/13 07:25:49;;;;;;;10.13;5.25;;;9.40;64.10;;;;;;4093738;28;20034;-81
2022/04/13 07:27:49;;;;;;;13.75;5.25;;;9.50;63.80;;;;;;4092045;29;20735;-81
2022/04/13 07:29:50;;;;;;;9.90;4.95;;;9.50;63.40;;;;;;4108487;28;20214;-82
2022/04/13 07:31:50;;;;;;;11.52;5.80;;;9.60;63.10;;;;;;4105532;28;20015;-80
2022/04/13 07:33:51;;;;;;;9.32;5.13;;;9.70;63.00;;;;;;4092899;28;20023;-81
2022/04/13 07:35:52;;;;;;;13.23;5.25;;;9.80;62.80;;;;;;4093243;29;20487;-81
2022/04/13 07:37:53;;;;;;;8.30;4.72;;;9.90;62.80;;;;;;4092149;29;20035;-80
2022/04/13 07:39:53;;;;;;;10.48;5.20;;;9.90;62.40;;;;;;4095033;28;20027;-81
2022/04/13 07:41:54;;;;;;;13.43;5.38;;;10.00;62.20;;;;;;4080617;29;20028;-82
2022/04/13 07:43:57;;;;;;;10.75;5.30;;;10.10;61.90;;;;;;4094499;29;20716;-82
2022/04/13 07:45:57;;;;;;;10.67;4.90;;;10.20;61.90;;;;;;4095288;29;20109;-82
2022/04/13 07:47:58;;;;;;;11.85;5.20;;;10.30;61.70;;;;;;4094418;29;21120;-82
2022/04/13 07:49:59;;;;;;;9.48;4.80;;;10.40;61.60;;;;;;4096515;29;20114;-82
2022/04/13 07:52:00;;;;;;;12.40;5.22;;;10.50;61.40;;;;;;4095358;29;20081;-81
2022/04/13 07:54:04;;;;;;;9.88;5.50;;;10.50;61.00;;;;;;4094143;28;20023;-81
2022/04/13 07:56:05;;;;;;;9.18;4.97;;;10.60;60.70;;;;;;4094979;28;20030;-81
2022/04/13 07:58:06;;;;;;;12.25;5.43;;;10.70;60.50;;;;;;4094366;29;20052;-82
2022/04/13 08:00:12;;;;;;;9.75;4.78;;;10.80;60.30;;;;;;4094077;28;20034;-81
2022/04/13 08:02:13;;;;;;;10.00;5.65;;;10.80;60.10;;;;;;4092565;29;20026;-81
2022/04/13 08:04:13;;;;;;;8.93;4.68;;;10.90;59.90;;;;;;4094847;29;20700;-82
2022/04/13 08:06:14;;;;;;;9.05;4.82;;;11.00;59.70;;;;;;4092868;28;20054;-82
2022/04/13 08:08:15;;;;;;;10.68;5.05;;;11.00;59.60;;;;;;4095116;29;20031;-82
2022/04/13 08:10:16;;;;;;;11.30;4.78;;;11.10;59.50;;;;;;4094621;29;20074;-82
2022/04/13 08:12:17;;;;;;;10.73;5.22;;;11.20;59.40;;;;;;4095299;29;20055;-82
2022/04/13 08:14:24;;;;;;;10.15;5.07;;;11.30;59.20;;;;;;4092413;29;20038;-81
2022/04/13 08:16:25;;;;;;;10.02;4.80;;;11.30;58.90;;;;;;4095857;28;20527;-82
2022/04/13 08:18:25;;;;;;;11.57;5.28;;;11.50;58.80;;;;;;4095676;29;20058;-81
2022/04/13 08:20:26;;;;;;;8.80;4.75;;;11.40;58.40;;;;;;4096047;28;20082;-81
2022/04/13 08:22:27;;;;;;;11.27;4.68;;;11.60;58.60;;;;;;4109904;28;20070;-81
2022/04/13 08:24:28;;;;;;;12.60;4.80;;;11.60;58.60;;;;;;4094143;28;20027;-81
2022/04/13 08:26:28;;;;;;;9.27;5.25;;;11.70;58.60;;;;;;4095342;29;20086;-82
2022/04/13 08:28:29;;;;;;;14.23;5.55;;;11.90;58.30;;;;;;4095113;28;20032;-82
2022/04/13 08:30:30;;;;;;;10.65;5.28;;;11.90;58.10;;;;;;4110224;28;20011;-82
2022/04/13 08:32:30;;;;;;;10.95;4.68;;;12.00;58.20;;;;;;4092962;28;20023;-80
2022/04/13 08:34:32;;;;;;;11.55;5.15;;;12.10;58.00;;;;;;4094348;29;20031;-81
2022/04/13 08:36:32;;;;;;;13.50;5.05;;;12.20;57.80;;;;;;4095175;29;20039;-81
2022/04/13 08:38:33;;;;;;;9.85;5.18;;;12.40;57.80;;;;;;4093005;28;20047;-81
2022/04/13 08:40:41;;;;;;;12.23;5.65;;;12.40;57.50;;;;;;4109528;28;20113;-82
2022/04/13 08:43:00;;;;;;;11.90;5.50;;;12.60;57.10;;;;;;4109959;28;20027;-82
2022/04/13 08:45:15;;;;;;;12.35;5.88;;;12.60;56.50;;;;;;4095227;28;20419;-82
2022/04/13 08:47:22;;;;;;;12.63;5.25;;;12.70;56.30;;;;;;4107565;28;20129;-82
2022/04/13 08:49:23;;;;;;;12.30;5.35;;;12.80;56.10;;;;;;4093341;29;20031;-81
2022/04/13 08:51:25;;;;;;;13.52;4.88;;;12.90;56.10;;;;;;4095050;28;20555;-82
2022/04/13 08:53:38;;;;;;;9.90;4.80;;;13.00;55.80;;;;;;4108930;28;20023;-82
2022/04/13 08:55:46;;;;;;;12.40;4.93;;;13.10;55.90;;;;;;4094617;29;20054;-82
2022/04/13 08:57:49;;;;;;;9.60;5.15;;;13.20;55.40;;;;;;4108212;28;20038;-82
2022/04/13 09:00:13;;;;;;;12.15;5.70;;;13.30;55.30;;;;;;4081166;29;20601;-81
2022/04/13 09:02:50;;;;;;;12.80;5.40;;;13.40;54.60;;;;;;4107399;28;20047;-82
2022/04/13 09:04:55;;;;;;;17.00;5.60;;;13.50;54.70;;;;;;4094925;28;20542;-82
2022/04/13 09:07:01;;;;;;;12.23;5.30;;;13.60;55.30;;;;;;4093207;28;20416;-81
2022/04/13 09:09:05;;;;;;;12.35;5.72;;;13.70;55.00;;;;;;4091088;29;20035;-81
2022/04/13 09:11:07;;;;;;;15.05;6.03;;;13.80;54.60;;;;;;4094719;28;20027;-82
2022/04/13 09:13:11;;;;;;;12.57;5.55;;;13.90;54.40;;;;;;4095041;29;20039;-82
2022/04/13 09:15:13;;;;;;;13.20;5.35;;;14.00;53.90;;;;;;4093759;29;20689;-82
2022/04/13 09:17:14;;;;;;;11.48;5.57;;;14.00;54.20;;;;;;4081401;29;20031;-82
2022/04/13 09:19:17;;;;;;;11.90;5.15;;;14.20;53.90;;;;;;4095088;29;20051;-82
2022/04/13 09:21:18;;;;;;;9.90;5.68;;;14.20;54.00;;;;;;4093883;29;20027;-82
2022/04/13 09:23:21;;;;;;;10.10;5.43;;;14.30;53.90;;;;;;4092443;28;20086;-82
2022/04/13 09:25:23;;;;;;;;;;;14.40;54.00;;;;;;4093499;28;20039;-82
2022/04/13 09:27:24;;;;;;;15.75;6.03;;;14.50;53.50;;;;;;4109649;28;19924;-81
2022/04/13 09:29:25;;;;;;;11.70;5.97;;;14.60;53.80;;;;;;4094448;28;20039;-82
2022/04/13 09:31:26;;;;;;;14.30;6.30;;;14.80;53.90;;;;;;4092884;28;20031;-81
2022/04/13 09:33:26;;;;;;;13.13;6.15;;;14.80;53.30;;;;;;4077497;29;20433;-82
2022/04/13 09:35:30;;;;;;;14.75;6.25;;;15.00;53.20;;;;;;4102689;28;20114;-83
2022/04/13 09:37:30;;;;;;;;;;;15.00;52.90;;;;;;4093062;29;20038;-82
2022/04/13 09:39:33;;;;;;;13.00;6.28;;;15.10;51.70;;;;;;4092906;29;19934;-82
2022/04/13 09:41:35;;;;;;;13.85;6.70;;;15.20;52.50;;;;;;4094830;28;20110;-83
2022/04/13 09:43:36;;;;;;;11.60;5.85;;;15.30;52.40;;;;;;4094461;29;20098;-83
2022/04/13 09:45:41;;;;;;;15.27;6.57;;;15.40;51.80;;;;;;4077242;29;20031;-82
2022/04/13 09:47:46;;;;;;;12.27;6.50;;;15.40;51.50;;;;;;4089595;28;20668;-81
2022/04/13 09:49:50;;;;;;;14.93;6.47;;;15.50;51.30;;;;;;4087915;28;20428;-82
2022/04/13 09:51:51;;;;;;;13.73;6.28;;;15.60;51.90;;;;;;4109589;28;20022;-82
2022/04/13 09:53:51;;;;;;;13.13;6.55;;;15.70;51.80;;;;;;4094202;28;20093;-82
2022/04/13 09:55:59;;;;;;;11.82;6.30;;;15.80;51.70;;;;;;4092154;29;20138;-83
2022/04/13 09:58:14;;;;;;;13.50;6.35;;;15.90;52.00;;;;;;4091823;29;20392;-82
2022/04/13 10:00:15;;;;;;;14.20;6.05;;;16.00;51.70;;;;;;4091481;28;20037;-82
2022/04/13 10:02:36;;;;;;;12.60;6.40;;;16.10;51.70;;;;;;4093184;28;20126;-82
2022/04/13 10:04:36;;;;;;;12.15;6.05;;;16.20;50.70;;;;;;4090855;29;20028;-81
2022/04/13 10:06:37;;;;;;;15.63;6.35;;;16.30;51.50;;;;;;4094625;29;20016;-82
2022/04/13 10:08:38;;;;;;;14.45;5.28;;;16.40;51.10;;;;;;4094027;29;20407;-82
2022/04/13 10:10:46;;;;;;;14.20;6.78;;;16.50;51.30;;;;;;4093449;28;20122;-82
2022/04/13 10:12:47;;;;;;;14.40;6.32;;;16.60;51.00;;;;;;4091512;29;20043;-82
2022/04/13 10:14:48;;;;;;;13.45;6.53;;;16.70;50.80;;;;;;4092946;29;20066;-83
2022/04/13 10:16:52;;;;;;;14.45;6.68;;;16.70;50.90;;;;;;4092924;28;20027;-82
2022/04/13 10:18:56;;;;;;;13.20;6.20;;;16.80;51.00;;;;;;4108762;28;20034;-81
2022/04/13 10:20:57;;;;;;;12.10;6.13;;;16.90;50.50;;;;;;4108568;28;20026;-82
2022/04/13 10:23:02;;;;;;;13.68;6.65;;;16.90;50.70;;;;;;4091064;28;20034;-83
2022/04/13 10:25:25;;;;;;;13.45;6.82;;;17.00;50.60;;;;;;4102775;29;20027;-81
2022/04/13 10:27:27;;;;;;;13.40;6.60;;;17.10;49.70;;;;;;4106478;29;20027;-82
2022/04/13 10:29:29;;;;;;;17.05;7.25;;;17.20;50.50;;;;;;4098810;29;20047;-81
2022/04/13 10:31:29;;;;;;;16.38;7.30;;;17.20;50.20;;;;;;4109687;28;20101;-82
2022/04/13 10:33:45;;;;;;;12.05;6.60;;;17.20;50.30;;;;;;4092405;28;20554;-82